Time;durP1;ratioP1;P1;durP2;ratioP2;P2;SDS_P1;SDS_P2;PMS_P1;PMS_P2;Temp;Humidity;BMP_temperature;BMP_pressure;BME280_temperature;BME280_humidity;BME280_pressure;Samples;Min_cycle;Max_cycle;Signal;HPM_P1;HPM_P2
2021/03/14 00:00:39;;;;;;;62.17;37.13;;;;;;;5.89;70.15;94487.66;4202666;28;20111;-84
2021/03/14 00:02:56;;;;;;;54.47;36.83;;;;;;;5.85;69.71;94478.50;4202686;28;20048;-85
2021/03/14 00:04:58;;;;;;;61.15;38.33;;;;;;;5.83;69.63;94475.22;4210031;28;20049;-86
2021/03/14 00:07:00;;;;;;;63.72;37.92;;;;;;;5.86;70.24;94464.56;4222624;28;20123;-84
2021/03/14 00:09:01;;;;;;;57.00;36.33;;;;;;;5.90;69.76;94465.94;4241673;27;20047;-85
2021/03/14 00:11:05;;;;;;;60.55;39.35;;;;;;;5.92;69.62;94467.44;4239220;27;20047;-85
2021/03/14 00:13:07;;;;;;;61.35;37.95;;;;;;;5.90;69.41;94464.16;4227166;28;20048;-84
2021/03/14 00:15:08;;;;;;;60.42;39.30;;;;;;;5.92;69.88;94462.22;4242525;27;20494;-85
2021/03/14 00:17:10;;;;;;;62.08;39.78;;;;;;;5.91;69.83;94470.16;4233871;27;20505;-83
2021/03/14 00:19:11;;;;;;;60.72;37.95;;;;;;;5.92;70.25;94459.63;4207925;28;20048;-84
2021/03/14 00:21:14;;;;;;;59.42;38.17;;;;;;;5.96;69.65;94457.63;4214224;28;20526;-84
2021/03/14 00:23:16;;;;;;;59.30;38.50;;;;;;;5.94;69.25;94455.16;4233686;28;20491;-85
2021/03/14 00:25:17;;;;;;;51.50;33.75;;;;;;;5.88;69.69;94454.84;4228872;28;20131;-86
2021/03/14 00:27:20;;;;;;;53.03;32.88;;;;;;;5.83;69.50;94451.81;4215141;28;20044;-85
2021/03/14 00:29:21;;;;;;;52.97;32.67;;;;;;;5.83;69.66;94446.63;4204314;28;20114;-85
2021/03/14 00:31:22;;;;;;;47.38;32.20;;;;;;;5.90;69.07;94447.72;4230428;28;20093;-84
2021/03/14 00:33:24;;;;;;;64.53;36.55;;;;;;;5.91;69.10;94450.19;4230824;28;20051;-84
2021/03/14 00:35:26;;;;;;;52.83;35.92;;;;;;;5.91;69.60;94441.56;4217225;28;20560;-72
2021/03/14 00:37:28;;;;;;;55.20;35.40;;;;;;;5.88;69.23;94434.88;4237206;28;20043;-83
2021/03/14 00:39:49;;;;;;;56.47;35.72;;;;;;;5.92;69.76;94430.22;4221888;28;20085;-84
2021/03/14 00:41:50;;;;;;;49.22;33.42;;;;;;;5.96;68.94;94434.22;4226042;28;20074;-83
2021/03/14 00:43:52;;;;;;;58.22;36.65;;;;;;;5.90;69.12;94429.53;4228064;28;20771;-85
2021/03/14 00:45:53;;;;;;;53.83;34.47;;;;;;;5.64;69.90;94439.66;4219507;28;20171;-85
2021/03/14 00:48:06;;;;;;;43.53;29.35;;;;;;;4.82;71.30;94443.25;4233154;28;20100;-83
2021/03/14 00:50:09;;;;;;;43.38;27.75;;;;;;;4.18;74.87;94428.72;4209689;28;20052;-87
2021/03/14 00:52:10;;;;;;;45.90;27.60;;;;;;;4.21;74.85;94431.88;4233854;27;20050;-86
2021/03/14 00:54:11;;;;;;;40.25;27.23;;;;;;;4.32;75.09;94436.16;4215657;28;20427;-84
2021/03/14 00:56:13;;;;;;;41.78;27.83;;;;;;;4.48;74.42;94428.75;4214417;28;20105;-83
2021/03/14 00:58:15;;;;;;;48.35;28.70;;;;;;;4.70;73.32;94430.34;4232091;28;20130;-85
2021/03/14 01:00:17;;;;;;;44.97;28.67;;;;;;;4.85;72.76;94428.25;4231548;28;20047;-86
2021/03/14 01:02:18;;;;;;;34.78;23.35;;;;;;;5.00;72.46;94420.91;4198945;28;20063;-86
2021/03/14 01:04:19;;;;;;;35.30;21.67;;;;;;;5.09;71.10;94420.13;4213851;28;20044;-84
2021/03/14 01:06:21;;;;;;;34.80;20.10;;;;;;;5.17;70.60;94421.25;4231824;28;20043;-87
2021/03/14 01:08:23;;;;;;;34.05;21.30;;;;;;;5.18;70.92;94423.69;4231520;28;20479;-84
2021/03/14 01:10:24;;;;;;;37.88;24.02;;;;;;;5.23;70.98;94428.50;4213484;28;20051;-84
2021/03/14 01:12:25;;;;;;;37.95;22.75;;;;;;;5.27;70.48;94422.91;4231212;28;20501;-85
2021/03/14 01:14:26;;;;;;;35.35;21.60;;;;;;;5.34;70.48;94416.22;4232675;28;20048;-84
2021/03/14 01:16:28;;;;;;;36.00;21.55;;;;;;;5.41;70.66;94423.47;4232124;28;20051;-84
2021/03/14 01:18:30;;;;;;;34.25;21.90;;;;;;;5.42;70.60;94425.09;4231447;28;20046;-85
2021/03/14 01:20:32;;;;;;;33.22;22.27;;;;;;;5.41;70.22;94426.88;4213790;28;20048;-85
2021/03/14 01:22:33;;;;;;;35.00;21.52;;;;;;;5.47;70.25;94422.94;4231125;28;20513;-84
2021/03/14 01:24:34;;;;;;;31.85;21.45;;;;;;;5.45;69.62;94425.66;4212359;28;20055;-84
2021/03/14 01:26:35;;;;;;;36.95;22.55;;;;;;;5.39;69.58;94428.78;4231487;28;20453;-85
2021/03/14 01:28:37;;;;;;;33.78;22.63;;;;;;;5.29;70.17;94422.75;4231085;28;20088;-83
2021/03/14 01:30:38;;;;;;;37.95;24.67;;;;;;;5.11;70.53;94420.00;4231260;28;20048;-82
2021/03/14 01:32:39;;;;;;;38.45;25.70;;;;;;;5.06;70.95;94424.78;4235031;28;20073;-85
2021/03/14 01:34:41;;;;;;;34.38;24.17;;;;;;;5.09;70.76;94427.91;4233342;28;20044;-83
2021/03/14 01:36:44;;;;;;;43.50;29.13;;;;;;;5.11;70.70;94425.19;4213237;28;20055;-82
2021/03/14 01:38:45;;;;;;;43.58;30.08;;;;;;;5.12;71.06;94424.25;4197087;28;20052;-83
2021/03/14 01:40:46;;;;;;;35.92;26.17;;;;;;;5.03;71.05;94414.63;4222546;28;20293;-85
2021/03/14 01:42:47;;;;;;;42.10;26.67;;;;;;;4.79;71.38;94420.16;4240315;28;20044;-85
2021/03/14 01:44:49;;;;;;;43.33;26.45;;;;;;;4.56;72.28;94425.53;4208886;28;20044;-85
2021/03/14 01:46:50;;;;;;;41.80;28.13;;;;;;;3.98;75.00;94423.41;4233036;28;20056;-84
2021/03/14 01:48:52;;;;;;;58.03;35.00;;;;;;;3.84;75.73;94415.94;4211999;28;20059;-85
2021/03/14 01:50:54;;;;;;;54.75;33.45;;;;;;;4.03;75.56;94410.88;4221940;28;20054;-84
2021/03/14 01:52:56;;;;;;;53.60;34.35;;;;;;;4.26;74.24;94413.34;4219884;28;20048;-81
2021/03/14 01:54:57;;;;;;;47.17;31.58;;;;;;;4.48;73.17;94412.38;4224787;28;20047;-84
2021/03/14 01:56:58;;;;;;;46.28;31.00;;;;;;;4.62;72.70;94416.41;4251263;27;20504;-83
2021/03/14 01:59:00;;;;;;;48.95;31.55;;;;;;;4.77;72.22;94412.50;4253288;27;20495;-85
2021/03/14 02:01:02;;;;;;;55.85;36.03;;;;;;;4.81;71.96;94418.25;4220690;28;20044;-83
2021/03/14 02:03:03;;;;;;;52.17;33.95;;;;;;;4.86;71.46;94410.88;4222670;28;20052;-84
2021/03/14 02:05:07;;;;;;;49.97;32.33;;;;;;;4.89;71.30;94416.66;4234812;28;20387;-83
2021/03/14 02:07:08;;;;;;;56.53;36.00;;;;;;;4.72;72.30;94417.25;4231281;28;20048;-84
2021/03/14 02:09:10;;;;;;;53.15;35.38;;;;;;;4.68;72.48;94415.88;4241541;28;20051;-84
2021/03/14 02:11:11;;;;;;;53.55;34.92;;;;;;;4.75;72.02;94416.19;4216529;28;20514;-85
2021/03/14 02:13:31;;;;;;;57.22;34.78;;;;;;;4.78;72.17;94413.34;4212838;28;20067;-85
2021/03/14 02:15:34;;;;;;;54.45;34.00;;;;;;;4.83;71.69;94414.56;4213692;28;20044;-85
2021/03/14 02:17:38;;;;;;;51.00;34.03;;;;;;;4.92;71.26;94400.78;4204796;28;20044;-70
2021/03/14 02:19:40;;;;;;;;;;;;;;;4.96;71.41;94405.75;4199576;28;20049;-70
2021/03/14 02:21:41;;;;;;;56.53;34.92;;;;;;;4.97;71.01;94405.63;4214845;28;19924;-71
2021/03/14 02:23:55;;;;;;;57.28;35.53;;;;;;;4.95;71.15;94401.47;4216021;28;20047;-69
2021/03/14 02:26:10;;;;;;;59.63;35.20;;;;;;;4.93;71.35;94402.44;4206504;28;20052;-70
2021/03/14 02:28:11;;;;;;;54.67;34.22;;;;;;;4.95;71.40;94396.28;4204963;28;20050;-68
2021/03/14 02:30:13;;;;;;;69.25;39.80;;;;;;;4.96;70.95;94398.75;4191946;28;20053;-70
2021/03/14 02:32:16;;;;;;;56.53;37.65;;;;;;;4.95;71.17;94401.47;4213923;28;20575;-71
2021/03/14 02:34:21;;;;;;;55.75;36.55;;;;;;;4.97;71.22;94397.81;4226775;28;20051;-71
2021/03/14 02:36:23;;;;;;;50.83;34.47;;;;;;;5.06;71.15;94393.63;4213185;28;20171;-85
2021/03/14 02:38:25;;;;;;;50.15;31.77;;;;;;;5.15;70.75;94397.19;4213181;28;20044;-84
2021/03/14 02:40:27;;;;;;;53.25;34.00;;;;;;;5.20;70.45;94397.59;4213691;28;20048;-83
2021/03/14 02:42:30;;;;;;;54.42;35.75;;;;;;;5.19;70.82;94396.78;4217030;28;20486;-83
2021/03/14 02:44:41;;;;;;;62.03;36.78;;;;;;;5.23;70.52;94402.53;4234235;28;20383;-83
2021/03/14 02:46:44;;;;;;;51.92;34.38;;;;;;;5.23;70.87;94398.16;4202123;28;20431;-85
2021/03/14 02:48:46;;;;;;;48.35;33.22;;;;;;;5.23;70.55;94405.13;4229273;28;20139;-85
2021/03/14 02:50:48;;;;;;;49.50;32.65;;;;;;;5.19;70.52;94401.97;4213632;28;20055;-85
2021/03/14 02:52:50;;;;;;;46.80;29.80;;;;;;;5.18;70.65;94404.69;4212895;28;20086;-84
2021/03/14 02:54:52;;;;;;;41.88;28.75;;;;;;;5.18;70.74;94410.69;4214307;28;20048;-84
2021/03/14 02:56:54;;;;;;;36.92;23.25;;;;;;;5.13;70.60;94407.69;4221717;28;20628;-86
2021/03/14 02:58:55;;;;;;;32.45;19.90;;;;;;;5.13;70.27;94397.31;4232105;28;20130;-84
2021/03/14 03:00:56;;;;;;;28.13;19.27;;;;;;;5.13;70.52;94400.72;4216350;28;20407;-85
2021/03/14 03:02:58;;;;;;;28.67;18.67;;;;;;;5.14;70.02;94401.53;4199681;28;20045;-88
2021/03/14 03:05:00;;;;;;;28.27;17.73;;;;;;;5.09;69.76;94395.94;4217204;28;20047;-84
2021/03/14 03:07:01;;;;;;;29.73;18.88;;;;;;;5.07;70.25;94397.84;4215308;28;20056;-83
2021/03/14 03:09:03;;;;;;;25.08;17.55;;;;;;;5.06;70.65;94393.63;4239512;27;20047;-85
2021/03/14 03:11:14;;;;;;;27.40;18.65;;;;;;;5.05;70.68;94390.16;4234873;28;20056;-86
2021/03/14 03:13:16;;;;;;;28.80;19.73;;;;;;;5.03;70.55;94386.88;4233553;28;20066;-84
2021/03/14 03:15:19;;;;;;;36.05;22.83;;;;;;;5.05;70.12;94387.56;4191669;28;20052;-85
2021/03/14 03:17:23;;;;;;;34.40;21.70;;;;;;;5.02;70.42;94384.44;4223183;28;20402;-84
2021/03/14 03:19:25;;;;;;;34.83;23.48;;;;;;;4.96;70.87;94390.16;4221653;28;20109;-82
2021/03/14 03:21:27;;;;;;;36.47;22.50;;;;;;;4.89;71.06;94384.69;4215768;28;20048;-85
2021/03/14 03:23:28;;;;;;;38.28;24.48;;;;;;;4.96;70.94;94379.78;4221604;28;20044;-83
2021/03/14 03:25:29;;;;;;;33.00;21.83;;;;;;;4.99;70.84;94389.88;4197968;28;20306;-71
2021/03/14 03:27:33;;;;;;;33.75;21.80;;;;;;;5.01;70.80;94388.81;4209393;28;20521;-69
2021/03/14 03:29:35;;;;;;;37.50;25.27;;;;;;;4.99;70.34;94382.09;4230987;27;20532;-71
2021/03/14 03:31:36;;;;;;;38.42;24.17;;;;;;;5.00;70.91;94381.16;4198718;28;20452;-71
2021/03/14 03:33:38;;;;;;;36.95;24.45;;;;;;;4.99;70.80;94384.69;4218244;28;20127;-71
2021/03/14 03:35:39;;;;;;;34.40;24.45;;;;;;;5.00;70.12;94388.94;4228678;27;20551;-82
2021/03/14 03:37:41;;;;;;;34.10;23.65;;;;;;;5.02;70.29;94385.25;4229395;27;20052;-83
2021/03/14 03:39:42;;;;;;;36.85;23.50;;;;;;;5.05;70.19;94378.97;4227506;28;20469;-84
2021/03/14 03:41:55;;;;;;;39.78;25.08;;;;;;;5.01;70.32;94380.19;4232409;28;20051;-83
2021/03/14 03:43:58;;;;;;;39.65;26.10;;;;;;;4.86;70.86;94380.59;4214628;28;20105;-83
2021/03/14 03:46:02;;;;;;;51.10;28.40;;;;;;;4.78;71.53;94375.22;4214391;28;20048;-85
2021/03/14 03:48:05;;;;;;;41.80;29.00;;;;;;;4.75;71.87;94377.25;4214946;28;20044;-87
2021/03/14 03:50:20;;;;;;;40.63;26.25;;;;;;;4.75;71.54;94372.88;4216293;28;20087;-82
2021/03/14 03:52:22;;;;;;;52.38;30.25;;;;;;;4.79;71.72;94374.25;4213949;28;20055;-84
2021/03/14 03:54:23;;;;;;;43.90;30.25;;;;;;;4.84;71.07;94368.66;4211496;28;20060;-85
2021/03/14 03:56:26;;;;;;;48.00;31.80;;;;;;;4.85;70.85;94380.69;4213752;28;20040;-70
2021/03/14 03:58:30;;;;;;;46.42;29.35;;;;;;;4.85;70.94;94368.53;4211420;28;20519;-71
2021/03/14 04:00:31;;;;;;;;;;;;;;;4.90;70.87;94365.53;4211523;28;20044;-70
2021/03/14 04:02:33;;;;;;;44.00;28.98;;;;;;;4.88;71.08;94364.84;4205445;28;19969;-72
2021/03/14 04:04:38;;;;;;;40.00;27.52;;;;;;;4.94;70.71;94372.13;4211956;28;20048;-71
2021/03/14 04:06:41;;;;;;;33.83;22.98;;;;;;;4.92;70.40;94379.22;4208341;28;20155;-70
2021/03/14 04:08:45;;;;;;;30.08;20.23;;;;;;;4.92;70.76;94372.25;4209993;28;20533;-71
2021/03/14 04:10:47;;;;;;;28.70;19.77;;;;;;;4.93;70.82;94371.31;4226952;28;20450;-71
2021/03/14 04:12:49;;;;;;;40.33;23.27;;;;;;;4.91;70.81;94372.41;4228477;28;20085;-70
2021/03/14 04:14:50;;;;;;;39.33;23.60;;;;;;;4.83;70.63;94362.66;4212983;28;20090;-70
2021/03/14 04:16:54;;;;;;;34.88;21.95;;;;;;;4.78;70.97;94361.44;4212366;28;20079;-71
2021/03/14 04:18:56;;;;;;;32.72;22.05;;;;;;;4.81;71.11;94351.59;4209891;28;20052;-70
2021/03/14 04:20:59;;;;;;;31.88;22.35;;;;;;;4.81;71.20;94356.78;4211278;28;20230;-70
2021/03/14 04:23:06;;;;;;;34.85;22.30;;;;;;;4.81;71.31;94355.97;4210314;28;20806;-70
2021/03/14 04:25:09;;;;;;;32.50;23.30;;;;;;;4.78;71.45;94357.06;4187952;28;20044;-69
2021/03/14 04:27:10;;;;;;;32.83;23.65;;;;;;;4.64;71.78;94352.22;4201604;28;20048;-70
2021/03/14 04:29:12;;;;;;;34.65;23.50;;;;;;;4.54;72.24;94348.75;4218924;28;20051;-70
2021/03/14 04:31:14;;;;;;;35.88;24.90;;;;;;;4.53;72.09;94347.94;4207126;28;20139;-70
2021/03/14 04:33:16;;;;;;;37.55;22.05;;;;;;;4.58;71.77;94347.56;4192526;28;20047;-70
2021/03/14 04:35:18;;;;;;;31.05;22.25;;;;;;;4.60;71.72;94341.28;4208917;28;20442;-70
2021/03/14 04:37:20;;;;;;;32.92;22.73;;;;;;;4.63;71.77;94343.63;4227134;27;20432;-70
2021/03/14 04:39:21;;;;;;;36.13;24.27;;;;;;;4.67;71.67;94350.19;4233146;27;20043;-70
2021/03/14 04:41:23;;;;;;;49.17;32.20;;;;;;;4.74;72.08;94344.47;4216715;28;20050;-71
2021/03/14 04:43:25;;;;;;;73.05;46.90;;;;;;;4.82;71.39;94337.69;4192890;28;20053;-71
2021/03/14 04:45:27;;;;;;;57.30;36.72;;;;;;;4.88;71.21;94344.09;4205907;28;20060;-70
2021/03/14 04:47:31;;;;;;;37.97;25.50;;;;;;;4.92;70.33;94343.69;4209308;28;20098;-71
2021/03/14 04:49:33;;;;;;;33.00;23.45;;;;;;;4.96;70.21;94331.28;4189471;28;20135;-72
2021/03/14 04:51:37;;;;;;;32.05;22.52;;;;;;;4.98;70.13;94341.53;4202882;28;20051;-70
2021/03/14 04:53:38;;;;;;;33.38;21.35;;;;;;;4.98;70.30;94338.94;4217768;28;20043;-70
2021/03/14 04:55:42;;;;;;;32.90;21.23;;;;;;;4.94;70.50;94343.56;4214448;28;20052;-69
2021/03/14 04:57:43;;;;;;;36.08;22.25;;;;;;;4.93;70.03;94344.53;4209360;28;20422;-71
2021/03/14 04:59:45;;;;;;;30.75;21.40;;;;;;;4.93;70.19;94339.34;4192784;28;20585;-70
2021/03/14 05:01:47;;;;;;;31.52;21.73;;;;;;;4.90;70.23;94337.00;4228317;28;20133;-70
2021/03/14 05:03:52;;;;;;;35.22;23.75;;;;;;;4.85;69.93;94342.59;4209602;28;20052;-70
2021/03/14 05:05:53;;;;;;;;;;;;;;;4.57;71.28;94344.16;4211407;28;20052;-74
2021/03/14 05:07:55;;;;;;;39.72;25.98;;;;;;;4.44;71.98;94340.97;4225493;28;19920;-71
2021/03/14 05:09:57;;;;;;;37.00;24.98;;;;;;;4.36;72.40;94336.41;4225873;28;20486;-70
2021/03/14 05:11:59;;;;;;;42.40;28.35;;;;;;;4.22;73.13;94347.16;4226296;28;20468;-71
2021/03/14 05:14:00;;;;;;;42.85;28.00;;;;;;;4.27;72.72;94342.38;4210325;28;20062;-71
2021/03/14 05:16:02;;;;;;;44.05;28.73;;;;;;;4.41;72.87;94344.66;4209070;28;20051;-70
2021/03/14 05:18:04;;;;;;;49.25;32.20;;;;;;;4.53;72.71;94341.94;4222623;28;20477;-73
2021/03/14 05:20:06;;;;;;;57.90;37.42;;;;;;;4.60;72.19;94337.88;4209974;28;20059;-70
2021/03/14 05:22:08;;;;;;;55.47;34.03;;;;;;;4.66;71.59;94337.34;4227193;28;20294;-69
2021/03/14 05:24:12;;;;;;;53.22;34.20;;;;;;;4.70;71.76;94336.13;4207450;28;20104;-70
2021/03/14 05:26:13;;;;;;;60.92;37.72;;;;;;;4.70;71.50;94331.75;4198181;28;20044;-70
2021/03/14 05:28:18;;;;;;;59.38;37.22;;;;;;;4.67;71.17;94333.81;4214313;28;20126;-71
2021/03/14 05:30:21;;;;;;;60.13;38.38;;;;;;;4.70;70.95;94344.72;4210047;28;20139;-71
2021/03/14 05:32:22;;;;;;;57.58;36.42;;;;;;;4.70;71.21;94336.94;4240361;27;20490;-70
2021/03/14 05:34:24;;;;;;;54.05;35.13;;;;;;;4.73;70.94;94333.25;4233393;27;20059;-70
2021/03/14 05:36:26;;;;;;;50.80;36.08;;;;;;;4.79;71.53;94335.31;4208386;28;20399;-69
2021/03/14 05:38:27;;;;;;;51.63;33.95;;;;;;;4.95;71.16;94334.00;4195189;28;20040;-71
2021/03/14 05:40:29;;;;;;;50.35;34.05;;;;;;;5.04;70.89;94331.44;4226259;28;20050;-71
2021/03/14 05:42:32;;;;;;;58.78;36.40;;;;;;;5.11;70.31;94329.09;4209027;28;20503;-70
2021/03/14 05:44:33;;;;;;;60.08;35.33;;;;;;;5.07;69.85;94331.16;4192497;28;20525;-70
2021/03/14 05:46:35;;;;;;;54.90;34.80;;;;;;;5.09;69.79;94337.03;4222963;28;20058;-71
2021/03/14 05:48:37;;;;;;;49.78;33.53;;;;;;;5.14;70.17;94341.81;4222418;28;20449;-72
2021/03/14 05:50:39;;;;;;;49.63;32.95;;;;;;;5.13;70.25;94330.59;4227014;28;20054;-70
2021/03/14 05:52:41;;;;;;;52.63;35.50;;;;;;;5.12;70.16;94333.38;4200084;28;20082;-70
2021/03/14 05:54:45;;;;;;;56.33;37.40;;;;;;;5.06;71.01;94329.53;4205053;28;20060;-84
2021/03/14 05:56:47;;;;;;;;;;;;;;;5.14;70.76;94326.22;4231058;27;20052;-84
2021/03/14 05:58:50;;;;;;;53.17;37.08;;;;;;;5.24;70.84;94339.25;4236269;27;19920;-84
2021/03/14 06:00:51;;;;;;;55.05;37.55;;;;;;;5.42;69.52;94331.59;4213238;28;20098;-85
2021/03/14 06:02:59;;;;;;;53.72;37.30;;;;;;;5.45;69.44;94339.94;4211229;28;20056;-85
2021/03/14 06:05:02;;;;;;;55.70;37.03;;;;;;;5.40;70.00;94338.69;4223360;28;20047;-85
2021/03/14 06:07:03;;;;;;;56.00;39.25;;;;;;;5.46;69.00;94340.75;4229313;28;20127;-84
2021/03/14 06:09:05;;;;;;;54.53;39.00;;;;;;;5.52;69.02;94325.44;4220597;28;20044;-85
2021/03/14 06:11:06;;;;;;;57.45;37.50;;;;;;;5.66;68.79;94331.19;4230987;28;20147;-83
2021/03/14 06:13:08;;;;;;;54.22;35.65;;;;;;;5.60;68.59;94329.94;4195749;28;20054;-87
2021/03/14 06:15:09;;;;;;;50.35;34.00;;;;;;;5.58;68.08;94331.88;4202712;28;20046;-86
2021/03/14 06:17:11;;;;;;;51.55;34.22;;;;;;;5.68;68.30;94337.88;4230349;28;20047;-84
2021/03/14 06:19:12;;;;;;;53.30;35.80;;;;;;;5.82;67.78;94330.63;4226001;28;20478;-86
2021/03/14 06:21:25;;;;;;;55.95;37.88;;;;;;;5.97;67.90;94344.03;4231313;28;20056;-84
2021/03/14 06:23:26;;;;;;;59.83;39.92;;;;;;;6.02;67.23;94334.84;4226213;28;20044;-72
2021/03/14 06:25:27;;;;;;;47.15;31.48;;;;;;;5.98;66.41;94335.25;4208143;28;20040;-71
2021/03/14 06:27:51;;;;;;;43.08;32.45;;;;;;;5.95;67.55;94344.97;4226470;28;20043;-70
2021/03/14 06:29:52;;;;;;;56.75;35.60;;;;;;;6.01;67.20;94341.00;4216065;27;20555;-72
2021/03/14 06:32:05;;;;;;;57.20;39.28;;;;;;;5.82;67.65;94346.22;4223540;28;20337;-70
2021/03/14 06:34:26;;;;;;;57.15;39.63;;;;;;;5.82;67.62;94344.41;4202744;28;20055;-71
2021/03/14 06:36:27;;;;;;;69.03;44.17;;;;;;;5.37;68.97;94336.38;4241719;27;20051;-71
2021/03/14 06:38:34;;;;;;;74.00;46.35;;;;;;;5.26;68.75;94339.94;4239561;27;20491;-71
2021/03/14 06:40:35;;;;;;;70.47;46.53;;;;;;;5.24;69.95;94350.44;4221635;28;20071;-71
2021/03/14 06:42:37;;;;;;;76.07;48.70;;;;;;;5.02;70.97;94353.28;4218890;28;20055;-71
2021/03/14 06:44:38;;;;;;;69.07;47.50;;;;;;;4.70;71.36;94349.09;4211562;28;20101;-71
2021/03/14 06:46:39;;;;;;;76.82;49.05;;;;;;;4.75;71.89;94346.91;4219039;28;20055;-74
2021/03/14 06:48:41;;;;;;;72.03;48.13;;;;;;;4.54;72.69;94349.59;4217325;28;20047;-71
2021/03/14 06:50:42;;;;;;;74.78;47.58;;;;;;;4.58;72.59;94355.34;4239559;27;20132;-71
2021/03/14 06:53:19;;;;;;;77.50;48.35;;;;;;;4.95;71.74;94346.97;4224247;27;20070;-70
2021/03/14 06:55:25;;;;;;;69.70;46.38;;;;;;;5.07;70.48;94346.72;4227328;28;20096;-70
2021/03/14 06:57:26;;;;;;;67.20;44.88;;;;;;;5.17;70.88;94346.75;4229750;28;20047;-71
2021/03/14 06:59:33;;;;;;;68.05;46.38;;;;;;;5.23;70.76;94337.63;4234823;27;20044;-73
2021/03/14 07:01:34;;;;;;;72.95;46.38;;;;;;;5.39;70.25;94339.66;4230331;28;20086;-70
2021/03/14 07:03:37;;;;;;;68.00;45.75;;;;;;;5.51;69.53;94338.59;4237069;27;20048;-70
2021/03/14 07:05:39;;;;;;;72.78;46.97;;;;;;;5.76;68.71;94342.38;4223925;28;20074;-71
2021/03/14 07:07:42;;;;;;;71.85;46.58;;;;;;;5.80;68.58;94333.34;4235347;27;20468;-69
2021/03/14 07:09:43;;;;;;;62.42;44.03;;;;;;;5.91;68.11;94334.97;4194087;28;20568;-71
2021/03/14 07:11:48;;;;;;;63.97;42.90;;;;;;;5.98;68.55;94340.47;4211051;28;20056;-71
2021/03/14 07:13:51;;;;;;;66.47;43.05;;;;;;;5.98;68.69;94341.31;4237139;27;20101;-71
2021/03/14 07:15:53;;;;;;;;;;;;;;;6.05;67.82;94339.78;4227638;28;20051;-83
2021/03/14 07:18:02;;;;;;;65.32;42.03;;;;;;;6.22;67.02;94334.81;4228500;28;20293;-86
2021/03/14 07:20:13;;;;;;;60.83;41.35;;;;;;;6.36;66.77;94339.53;4226886;28;20639;-70
2021/03/14 07:22:18;;;;;;;59.53;40.53;;;;;;;6.54;66.87;94324.84;4214827;28;20051;-72
2021/03/14 07:24:28;;;;;;;74.20;42.85;;;;;;;6.66;65.87;94319.44;4236437;27;20100;-72
2021/03/14 07:26:43;;;;;;;62.47;38.47;;;;;;;6.81;65.59;94322.38;4198514;28;20047;-71
2021/03/14 07:28:44;;;;;;;54.92;39.55;;;;;;;6.99;64.85;94320.63;4230194;28;20050;-72
2021/03/14 07:30:48;;;;;;;55.58;36.22;;;;;;;7.21;64.82;94318.59;4211276;28;20056;-71
2021/03/14 07:32:50;;;;;;;58.67;37.90;;;;;;;7.30;64.12;94313.28;4229053;28;20060;-71
2021/03/14 07:34:52;;;;;;;50.65;35.53;;;;;;;7.42;63.84;94311.28;4209730;28;20588;-70
2021/03/14 07:36:54;;;;;;;45.55;32.72;;;;;;;7.57;63.33;94311.56;4229214;28;20047;-74
2021/03/14 07:38:59;;;;;;;40.85;30.40;;;;;;;7.38;63.44;94309.94;4209221;28;20048;-72
2021/03/14 07:41:01;;;;;;;52.88;33.25;;;;;;;7.43;63.88;94312.09;4229162;28;20181;-71
2021/03/14 07:43:03;;;;;;;46.33;32.15;;;;;;;7.44;63.72;94301.50;4194979;28;20045;-71
2021/03/14 07:45:10;;;;;;;45.00;32.30;;;;;;;7.34;63.89;94304.22;4235797;27;20055;-72
2021/03/14 07:47:14;;;;;;;46.38;33.38;;;;;;;7.44;64.07;94303.31;4233477;27;20401;-70
2021/03/14 07:49:19;;;;;;;49.15;32.83;;;;;;;7.58;63.16;94305.38;4236359;27;20039;-71
2021/03/14 07:51:22;;;;;;;43.15;31.92;;;;;;;7.68;63.00;94302.69;4223251;28;20081;-73
2021/03/14 07:53:24;;;;;;;45.05;30.85;;;;;;;7.87;63.31;94299.09;4187255;28;20059;-73
2021/03/14 07:55:25;;;;;;;43.03;31.40;;;;;;;8.08;62.30;94301.34;4226736;27;20586;-71
2021/03/14 07:57:30;;;;;;;43.72;30.48;;;;;;;8.10;61.78;94302.00;4206035;28;20051;-73
2021/03/14 07:59:32;;;;;;;46.53;31.92;;;;;;;7.93;62.28;94295.88;4219646;28;20473;-71
2021/03/14 08:01:38;;;;;;;43.53;30.45;;;;;;;7.95;62.92;94293.94;4218031;28;20063;-70
2021/03/14 08:03:40;;;;;;;43.33;30.10;;;;;;;8.12;61.16;94295.66;4229016;28;20061;-71
2021/03/14 08:05:48;;;;;;;42.75;29.95;;;;;;;8.34;61.56;94293.50;4232256;27;20557;-70
2021/03/14 08:07:49;;;;;;;46.13;29.05;;;;;;;8.30;61.66;94287.78;4196594;28;20052;-72
2021/03/14 08:09:52;;;;;;;37.05;27.52;;;;;;;8.52;60.62;94281.25;4225606;27;20088;-71
2021/03/14 08:12:14;;;;;;;41.95;29.52;;;;;;;8.78;59.70;94277.75;4217953;28;20128;-71
2021/03/14 08:14:40;;;;;;;34.40;26.60;;;;;;;8.88;59.44;94272.38;4223217;28;20066;-72
2021/03/14 08:16:41;;;;;;;37.75;27.73;;;;;;;8.84;59.11;94265.81;4235592;27;20048;-70
2021/03/14 08:18:48;;;;;;;38.03;27.55;;;;;;;8.90;58.97;94266.00;4221598;28;20075;-72
2021/03/14 08:20:49;;;;;;;45.75;28.00;;;;;;;8.76;59.05;94272.66;4218834;28;20047;-72
2021/03/14 08:22:51;;;;;;;38.72;28.17;;;;;;;8.81;59.20;94275.63;4211323;28;20048;-71
2021/03/14 08:25:16;;;;;;;38.03;28.13;;;;;;;8.77;59.65;94269.06;4208744;28;20083;-72
2021/03/14 08:27:32;;;;;;;35.58;25.38;;;;;;;8.75;59.49;94275.44;4229087;27;20139;-72
2021/03/14 08:29:42;;;;;;;35.53;25.27;;;;;;;9.13;58.89;94265.41;4232605;27;20078;-72
2021/03/14 08:31:47;;;;;;;40.38;30.42;;;;;;;8.98;58.84;94265.22;4208191;28;20044;-72
2021/03/14 08:33:49;;;;;;;42.90;30.75;;;;;;;9.04;58.94;94266.38;4217032;28;20103;-73
2021/03/14 08:36:20;;;;;;;38.65;28.83;;;;;;;8.64;59.57;94268.72;4229258;28;20063;-71
2021/03/14 08:38:50;;;;;;;38.60;28.38;;;;;;;8.85;59.41;94267.47;4206334;28;20410;-72
2021/03/14 08:44:13;;;;;;;43.13;30.15;;;;;;;8.87;59.60;94258.50;4191580;28;20066;-72
2021/03/14 08:46:15;;;;;;;40.60;28.70;;;;;;;9.05;58.75;94266.22;4235384;27;20047;-72
2021/03/14 08:48:16;;;;;;;39.15;28.10;;;;;;;9.17;58.48;94262.31;4234800;27;20047;-70
2021/03/14 08:50:18;;;;;;;41.35;30.02;;;;;;;9.13;58.64;94261.00;4207695;28;20059;-71
2021/03/14 08:52:20;;;;;;;43.72;28.70;;;;;;;9.28;57.85;94269.03;4224567;28;20422;-86
2021/03/14 08:54:26;;;;;;;40.55;27.08;;;;;;;9.56;58.07;94259.09;4238559;27;20108;-87
2021/03/14 08:56:27;;;;;;;39.13;27.63;;;;;;;9.73;57.62;94259.91;4232234;28;20044;-87
2021/03/14 08:58:28;;;;;;;43.42;28.88;;;;;;;9.79;56.97;94261.84;4220271;28;20052;-84
2021/03/14 09:00:29;;;;;;;38.38;26.30;;;;;;;9.92;56.10;94258.75;4233370;28;20486;-87
2021/03/14 09:02:36;;;;;;;30.83;22.60;;;;;;;9.86;55.68;94254.16;4234818;28;20434;-88
2021/03/14 09:04:37;;;;;;;28.00;22.42;;;;;;;9.87;56.09;94252.34;4232906;28;20051;-89
2021/03/14 09:06:40;;;;;;;28.77;23.20;;;;;;;9.78;56.15;94248.94;4232269;28;20052;-86
2021/03/14 09:09:01;;;;;;;31.83;25.05;;;;;;;9.76;56.62;94256.13;4213733;28;20060;-86
2021/03/14 09:11:02;;;;;;;28.58;21.48;;;;;;;10.02;56.10;94250.69;4232933;27;20070;-86
2021/03/14 09:13:04;;;;;;;30.73;21.80;;;;;;;10.34;56.07;94247.22;4242310;27;20066;-83
2021/03/14 09:15:08;;;;;;;29.40;20.05;;;;;;;10.40;55.18;94237.88;4237996;27;20044;-86
2021/03/14 09:17:18;;;;;;;25.05;19.38;;;;;;;10.58;54.85;94248.09;4238378;27;20050;-87
2021/03/14 09:19:30;;;;;;;23.90;18.58;;;;;;;10.73;54.28;94237.72;4228660;28;20410;-86
2021/03/14 09:22:11;;;;;;;29.90;21.17;;;;;;;10.80;54.17;94233.47;4240630;28;20104;-83
2021/03/14 09:24:49;;;;;;;27.27;20.55;;;;;;;10.70;54.21;94225.00;4199132;28;20427;-72
2021/03/14 09:27:02;;;;;;;25.95;19.77;;;;;;;10.86;54.44;94230.13;4215255;28;20058;-71
2021/03/14 09:29:03;;;;;;;25.30;19.58;;;;;;;11.07;53.29;94224.28;4218898;28;20047;-72
2021/03/14 09:31:11;;;;;;;28.88;22.85;;;;;;;11.01;53.93;94223.19;4210293;28;20062;-72
2021/03/14 09:33:12;;;;;;;28.30;22.65;;;;;;;11.15;53.39;94215.56;4226955;27;20063;-72
2021/03/14 09:35:14;;;;;;;30.65;22.23;;;;;;;11.46;53.05;94211.06;4212660;28;20115;-86
2021/03/14 09:37:34;;;;;;;28.98;22.10;;;;;;;11.54;52.15;94215.41;4223020;28;20402;-84
2021/03/14 09:39:35;;;;;;;29.77;21.92;;;;;;;11.46;52.23;94199.75;4235200;28;20544;-87
2021/03/14 09:41:44;;;;;;;26.25;21.15;;;;;;;11.22;52.73;94201.56;4239018;27;20112;-84